createdAt,value
2023-02-24T00:00:38.915Z,100832.50
2023-02-24T00:03:11.900Z,100831.78
2023-02-24T00:05:40.752Z,100833.63
2023-02-24T00:08:09.272Z,100836.63
2023-02-24T00:10:38.349Z,100836.56
2023-02-24T00:13:06.956Z,100839.47
2023-02-24T00:15:35.574Z,100833.56
2023-02-24T00:18:07.824Z,100825.28
2023-02-24T00:20:36.563Z,100824.72
2023-02-24T00:23:04.819Z,100821.59
2023-02-24T00:25:33.045Z,100820.31
2023-02-24T00:28:02.447Z,100829.75
2023-02-24T00:30:33.484Z,100831.34
2023-02-24T00:33:02.938Z,100835.00
2023-02-24T00:35:32.817Z,100835.09
2023-02-24T00:38:01.169Z,100833.09
2023-02-24T00:40:31.172Z,100832.84
2023-02-24T00:43:01.080Z,100833.41
2023-02-24T00:45:31.572Z,100831.94
2023-02-24T00:48:00.297Z,100832.03
2023-02-24T00:50:28.553Z,100827.78
2023-02-24T00:52:56.781Z,100832.03
2023-02-24T00:55:28.660Z,100825.75
2023-02-24T00:57:57.467Z,100821.13
2023-02-24T01:00:25.835Z,100824.66
2023-02-24T01:02:54.783Z,100821.03
2023-02-24T01:05:23.297Z,100817.53
2023-02-24T01:07:52.777Z,100822.75
2023-02-24T01:10:23.936Z,100823.72
2023-02-24T01:12:54.661Z,100819.94
2023-02-24T01:15:23.316Z,100818.88
2023-02-24T01:17:51.576Z,100817.06
2023-02-24T01:20:19.964Z,100814.53
2023-02-24T01:22:53.849Z,100808.44
2023-02-24T01:25:23.091Z,100799.59
2023-02-24T01:27:53.129Z,100805.88
2023-02-24T01:30:21.567Z,100805.88
2023-02-24T01:32:50.310Z,100804.06
2023-02-24T01:35:18.529Z,100807.47
2023-02-24T01:37:46.734Z,100797.53
2023-02-24T01:40:21.829Z,100800.94
2023-02-24T01:42:50.984Z,100805.31
2023-02-24T01:45:30.291Z,100801.91
2023-02-24T01:48:03.300Z,100809.06
2023-02-24T01:50:36.174Z,100802.03
2023-02-24T01:53:07.711Z,100812.91
2023-02-24T01:55:52.652Z,100814.09
2023-02-24T01:58:28.937Z,100805.72
2023-02-24T02:00:58.490Z,100801.31
2023-02-24T02:03:36.692Z,100801.66
2023-02-24T02:06:12.390Z,100805.50
2023-02-24T02:08:42.623Z,100797.00
2023-02-24T02:11:14.458Z,100791.91
2023-02-24T02:13:45.621Z,100788.63
2023-02-24T02:16:33.089Z,100794.94
2023-02-24T02:19:26.554Z,100786.06
2023-02-24T02:22:07.533Z,100782.78
2023-02-24T02:24:49.458Z,100775.84
2023-02-24T02:27:37.575Z,100771.56
2023-02-24T02:30:15.013Z,100772.53
2023-02-24T02:32:53.198Z,100767.00
2023-02-24T02:35:40.786Z,100770.84
2023-02-24T02:38:26.610Z,100768.06
2023-02-24T02:41:07.475Z,100766.72
2023-02-24T02:43:49.813Z,100771.53
2023-02-24T02:46:39.216Z,100765.69
2023-02-24T02:49:17.092Z,100761.66
2023-02-24T02:51:55.332Z,100766.44
2023-02-24T02:54:50.175Z,100758.78
2023-02-24T02:57:28.736Z,100759.00
2023-02-24T03:00:21.733Z,100757.41
2023-02-24T03:02:57.170Z,100758.69
2023-02-24T03:05:30.494Z,100753.50
2023-02-24T03:08:01.650Z,100756.25
2023-02-24T03:10:35.092Z,100758.06
2023-02-24T03:13:09.166Z,100765.19
2023-02-24T03:15:42.577Z,100770.41
2023-02-24T03:18:19.130Z,100768.84
2023-02-24T03:20:52.774Z,100761.69
2023-02-24T03:23:28.572Z,100761.81
2023-02-24T03:26:24.300Z,100753.81
2023-02-24T03:29:00.013Z,100761.91
2023-02-24T03:31:33.424Z,100752.34
2023-02-24T03:34:16.741Z,100754.13
2023-02-24T03:36:45.532Z,100755.84
2023-02-24T03:39:16.572Z,100751.38
2023-02-24T03:42:04.027Z,100743.91
2023-02-24T03:44:36.211Z,100744.69
2023-02-24T03:47:04.457Z,100741.25
2023-02-24T03:49:32.786Z,100742.22
2023-02-24T03:52:09.495Z,100742.63
2023-02-24T03:55:06.932Z,100731.16
2023-02-24T03:57:55.741Z,100734.97
2023-02-24T04:00:47.461Z,100736.03
2023-02-24T04:03:27.705Z,100739.34
2023-02-24T04:06:28.016Z,100734.22
2023-02-24T04:09:34.812Z,100733.72
2023-02-24T04:12:43.509Z,100735.53
2023-02-24T04:15:23.607Z,100728.47
2023-02-24T04:17:59.421Z,100730.72
2023-02-24T04:20:35.055Z,100736.03
2023-02-24T04:23:22.615Z,100734.09
2023-02-24T04:25:53.804Z,100727.72
2023-02-24T04:28:23.422Z,100731.25
2023-02-24T04:30:58.579Z,100741.03
2023-02-24T04:33:27.084Z,100743.06
2023-02-24T04:35:55.553Z,100730.81
2023-02-24T04:38:25.458Z,100736.13
2023-02-24T04:40:54.966Z,100730.94
2023-02-24T04:43:23.726Z,100724.88
2023-02-24T04:45:56.487Z,100724.13
2023-02-24T04:48:25.009Z,100718.91
2023-02-24T04:50:55.509Z,100716.97
2023-02-24T04:53:28.191Z,100715.28
2023-02-24T04:55:56.766Z,100718.69
2023-02-24T04:58:28.815Z,100719.44
2023-02-24T05:00:57.474Z,100720.91
2023-02-24T05:03:28.830Z,100709.19
2023-02-24T05:06:00.644Z,100716.00
2023-02-24T05:08:31.666Z,100709.59
2023-02-24T05:11:07.810Z,100708.56
2023-02-24T05:13:38.331Z,100705.78
2023-02-24T05:16:09.180Z,100702.91
2023-02-24T05:18:39.929Z,100690.31
2023-02-24T05:21:29.223Z,100688.38
2023-02-24T05:23:59.969Z,100692.75
2023-02-24T05:26:28.131Z,100686.34
2023-02-24T05:28:56.827Z,100682.63
2023-02-24T05:31:28.314Z,100672.69
2023-02-24T05:33:59.621Z,100676.97
2023-02-24T05:36:32.583Z,100681.19
2023-02-24T05:39:08.370Z,100683.75
2023-02-24T05:41:39.082Z,100686.31
2023-02-24T05:44:11.522Z,100681.59
